Time;durP1;ratioP1;P1;durP2;ratioP2;P2;SDS_P1;SDS_P2;PMS_P1;PMS_P2;Temp;Humidity;BMP_temperature;BMP_pressure;BME280_temperature;BME280_humidity;BME280_pressure;Samples;Min_cycle;Max_cycle;Signal;HPM_P1;HPM_P2
2023/03/01 00:01:27;;;;;;;14.40;12.53;;;-2.20;99.90;;;;;;5022606;28;20208;-81
2023/03/01 00:03:54;;;;;;;14.93;12.87;;;-2.20;99.90;;;;;;5004791;28;20180;-83
2023/03/01 00:06:21;;;;;;;15.40;13.30;;;-2.20;99.90;;;;;;5005261;28;20212;-81
2023/03/01 00:08:47;;;;;;;13.47;12.07;;;-2.20;99.90;;;;;;5022058;28;20541;-82
2023/03/01 00:11:25;;;;;;;13.20;11.93;;;-2.10;99.90;;;;;;5003470;28;20176;-81
2023/03/01 00:13:54;;;;;;;13.80;12.17;;;-2.20;99.90;;;;;;5003771;28;20186;-79
2023/03/01 00:16:22;;;;;;;14.77;11.97;;;-2.30;99.90;;;;;;5021320;28;20180;-80
2023/03/01 00:18:48;;;;;;;14.67;12.77;;;-2.30;99.90;;;;;;5003581;28;20187;-79
2023/03/01 00:21:14;;;;;;;14.73;12.83;;;-2.30;99.90;;;;;;5020199;28;20533;-80
2023/03/01 00:23:40;;;;;;;13.80;12.40;;;-2.30;99.90;;;;;;5002798;28;20668;-80
2023/03/01 00:26:09;;;;;;;14.60;12.53;;;-2.20;99.90;;;;;;5003880;28;20207;-80
2023/03/01 00:28:36;;;;;;;14.07;12.50;;;-2.10;99.90;;;;;;5021547;28;20172;-81
2023/03/01 00:31:13;;;;;;;19.87;13.93;;;-2.00;99.90;;;;;;5005400;28;20217;-81
2023/03/01 00:33:39;;;;;;;16.27;13.03;;;-2.20;99.90;;;;;;5005016;28;20167;-81
2023/03/01 00:36:05;;;;;;;16.60;14.57;;;-2.30;99.90;;;;;;5004830;28;20611;-81
2023/03/01 00:38:39;;;;;;;16.97;14.30;;;-2.20;99.90;;;;;;5005187;28;20183;-81
2023/03/01 00:41:06;;;;;;;16.37;14.40;;;-2.20;99.90;;;;;;5008196;28;20207;-80
2023/03/01 00:43:36;;;;;;;18.67;14.77;;;-2.20;99.90;;;;;;5025583;28;20558;-81
2023/03/01 00:46:07;;;;;;;16.50;14.73;;;-2.40;99.90;;;;;;5023708;28;20156;-81
2023/03/01 00:48:33;;;;;;;18.33;15.27;;;-2.60;99.90;;;;;;5005772;28;20172;-80
2023/03/01 00:51:10;;;;;;;18.57;15.53;;;-2.70;99.90;;;;;;5001210;28;20184;-79
2023/03/01 00:53:36;;;;;;;19.33;14.93;;;-2.70;99.90;;;;;;4999835;28;20171;-79
2023/03/01 00:56:03;;;;;;;17.57;14.17;;;-2.70;99.90;;;;;;4999930;28;20188;-79
2023/03/01 00:58:29;;;;;;;19.37;14.57;;;-2.60;99.90;;;;;;5017346;28;20246;-79
2023/03/01 01:00:55;;;;;;;18.07;14.60;;;-2.60;99.90;;;;;;5017502;28;20648;-79
2023/03/01 01:03:23;;;;;;;20.00;14.27;;;-2.60;99.90;;;;;;4999452;28;20220;-78
2023/03/01 01:05:48;;;;;;;16.33;13.83;;;-2.70;99.90;;;;;;5018561;28;20172;-79
2023/03/01 01:08:14;;;;;;;18.17;15.47;;;-2.60;99.90;;;;;;5019334;28;20191;-79
2023/03/01 01:10:40;;;;;;;20.67;15.83;;;-2.50;99.90;;;;;;5017915;28;20633;-79
2023/03/01 01:13:05;;;;;;;15.80;14.10;;;-2.50;99.90;;;;;;5016962;28;20260;-79
2023/03/01 01:15:35;;;;;;;19.97;14.70;;;-2.60;99.90;;;;;;4999646;28;20667;-79
2023/03/01 01:18:00;;;;;;;17.70;14.73;;;-2.60;99.90;;;;;;4999238;28;20183;-79
2023/03/01 01:20:26;;;;;;;14.80;13.30;;;-2.60;99.90;;;;;;5016639;28;20554;-80
2023/03/01 01:22:52;;;;;;;18.50;14.30;;;-2.60;99.90;;;;;;5016263;28;20219;-79
2023/03/01 01:25:18;;;;;;;18.10;15.47;;;-2.60;99.90;;;;;;5017485;28;20176;-79
2023/03/01 01:27:44;;;;;;;15.87;13.83;;;-2.50;99.90;;;;;;5017583;28;20203;-79
2023/03/01 01:30:11;;;;;;;17.53;15.73;;;-2.60;99.90;;;;;;5016160;28;20171;-79
2023/03/01 01:32:36;;;;;;;16.23;12.90;;;-2.70;99.90;;;;;;5014563;28;20242;-79
2023/03/01 01:35:02;;;;;;;15.93;13.87;;;-2.70;99.90;;;;;;4996892;28;20181;-79
2023/03/01 01:37:31;;;;;;;18.17;14.40;;;-2.80;99.90;;;;;;5015504;28;20191;-79
2023/03/01 01:40:03;;;;;;;18.23;14.53;;;-2.90;99.90;;;;;;4997137;28;20203;-79
2023/03/01 01:42:29;;;;;;;16.93;14.20;;;-2.90;99.90;;;;;;5014248;28;20203;-78
2023/03/01 01:45:23;;;;;;;16.77;14.13;;;-3.00;99.90;;;;;;4996637;28;20190;-78
2023/03/01 01:47:50;;;;;;;17.37;12.83;;;-3.10;99.90;;;;;;4996598;28;20179;-78
2023/03/01 01:50:18;;;;;;;16.23;13.53;;;-3.00;99.90;;;;;;4996782;28;20184;-78
2023/03/01 01:52:46;;;;;;;14.77;13.23;;;-3.10;99.90;;;;;;4996596;28;20211;-79
2023/03/01 01:55:17;;;;;;;15.30;13.70;;;-3.20;99.90;;;;;;4996576;28;20187;-78
2023/03/01 01:57:47;;;;;;;15.30;13.70;;;-3.40;99.90;;;;;;5014127;28;20164;-79
2023/03/01 02:00:16;;;;;;;17.80;14.63;;;-3.30;99.90;;;;;;4996595;28;20191;-79
2023/03/01 02:02:44;;;;;;;15.27;13.77;;;-3.30;99.90;;;;;;4996382;28;20225;-79
2023/03/01 02:05:19;;;;;;;16.47;13.07;;;-3.30;99.90;;;;;;4996673;28;20546;-78
2023/03/01 02:07:46;;;;;;;15.47;13.83;;;-3.40;99.90;;;;;;4996534;28;20241;-78
2023/03/01 02:10:12;;;;;;;14.90;13.30;;;-3.40;99.90;;;;;;4996804;28;20212;-78
2023/03/01 02:12:38;;;;;;;15.33;13.13;;;-3.50;99.90;;;;;;4996468;28;20204;-78
2023/03/01 02:15:05;;;;;;;17.33;13.57;;;-3.30;99.90;;;;;;5014117;28;20203;-78
2023/03/01 02:17:31;;;;;;;14.27;12.80;;;-3.30;99.90;;;;;;5014288;28;20187;-78
2023/03/01 02:20:15;;;;;;;14.80;13.27;;;-3.30;99.90;;;;;;5015322;28;20180;-77
2023/03/01 02:22:44;;;;;;;15.00;13.50;;;-3.20;99.90;;;;;;5013884;28;20219;-78
2023/03/01 02:25:19;;;;;;;15.87;13.97;;;-3.10;99.90;;;;;;4997526;28;20176;-78
2023/03/01 02:28:10;;;;;;;15.60;14.00;;;-3.20;99.90;;;;;;5014834;28;20266;-79
2023/03/01 02:30:36;;;;;;;14.17;12.60;;;-3.40;99.90;;;;;;5014689;28;20164;-79
2023/03/01 02:33:04;;;;;;;15.53;13.17;;;-3.40;99.90;;;;;;5014572;28;20215;-79
2023/03/01 02:35:38;;;;;;;14.57;13.13;;;-3.40;99.90;;;;;;5016752;28;20263;-80
2023/03/01 02:38:07;;;;;;;13.63;12.33;;;-3.50;99.90;;;;;;5000831;28;20172;-79
2023/03/01 02:40:35;;;;;;;14.37;12.70;;;-3.70;99.90;;;;;;5001204;28;20188;-78
2023/03/01 02:43:04;;;;;;;15.50;13.83;;;-3.70;99.90;;;;;;5022571;28;20222;-78
2023/03/01 02:45:29;;;;;;;15.27;13.77;;;-3.60;99.90;;;;;;5004518;28;20270;-79
2023/03/01 02:47:56;;;;;;;15.90;14.20;;;-3.50;99.90;;;;;;5021210;28;20210;-79
2023/03/01 02:51:05;;;;;;;14.90;13.27;;;-3.40;99.90;;;;;;5022140;28;20546;-81
2023/03/01 02:54:07;;;;;;;14.90;13.50;;;-3.40;99.90;;;;;;5004396;28;20203;-80
2023/03/01 02:56:34;;;;;;;16.03;13.70;;;-3.50;99.90;;;;;;5006885;28;20187;-80
2023/03/01 02:59:00;;;;;;;19.10;14.47;;;-3.40;99.90;;;;;;5007733;28;20236;-80
2023/03/01 03:01:36;;;;;;;14.87;13.37;;;-3.40;99.90;;;;;;5004130;28;20675;-79
2023/03/01 03:04:04;;;;;;;15.30;13.73;;;-3.40;99.90;;;;;;5002899;28;20172;-79
2023/03/01 03:06:30;;;;;;;17.57;14.00;;;-3.30;99.90;;;;;;5020980;28;20160;-80
2023/03/01 03:08:56;;;;;;;17.50;14.33;;;-3.30;99.90;;;;;;5020526;28;20183;-80
2023/03/01 03:11:21;;;;;;;17.87;14.83;;;-3.40;99.90;;;;;;5019553;28;20176;-78
2023/03/01 03:13:47;;;;;;;16.20;14.60;;;-3.40;99.90;;;;;;4999457;28;20187;-79
2023/03/01 03:16:14;;;;;;;17.07;13.93;;;-3.50;99.90;;;;;;5017297;28;20176;-78
2023/03/01 03:18:40;;;;;;;18.13;14.20;;;-3.60;99.90;;;;;;5002668;28;20179;-80
2023/03/01 03:21:10;;;;;;;16.23;14.60;;;-3.70;99.90;;;;;;5003304;28;20180;-80
2023/03/01 03:23:36;;;;;;;16.87;14.27;;;-3.80;99.90;;;;;;5003372;28;20210;-80
2023/03/01 03:26:04;;;;;;;16.40;14.23;;;-3.90;99.90;;;;;;5003126;28;20555;-79
2023/03/01 03:28:34;;;;;;;15.63;14.03;;;-4.00;99.90;;;;;;5003016;28;20186;-80
2023/03/01 03:31:03;;;;;;;15.10;13.60;;;-4.10;99.90;;;;;;5003030;28;20222;-79
2023/03/01 03:33:30;;;;;;;16.93;15.13;;;-4.10;99.90;;;;;;5020125;28;20204;-80
2023/03/01 03:35:56;;;;;;;14.93;13.40;;;-4.00;99.90;;;;;;5020541;28;20180;-80
2023/03/01 03:38:22;;;;;;;17.93;14.13;;;-4.10;99.90;;;;;;5002923;28;20233;-80
2023/03/01 03:40:51;;;;;;;14.83;13.37;;;-4.30;99.90;;;;;;5003480;28;20707;-80
2023/03/01 03:43:19;;;;;;;15.53;13.93;;;-4.30;99.90;;;;;;5003889;28;20216;-80
2023/03/01 03:45:47;;;;;;;14.87;13.47;;;-4.30;99.90;;;;;;5020881;28;20175;-80
2023/03/01 03:48:13;;;;;;;15.03;13.63;;;-4.30;99.90;;;;;;5003592;28;20573;-80
2023/03/01 03:50:40;;;;;;;14.47;13.07;;;-4.40;99.90;;;;;;5003712;28;20210;-80
2023/03/01 03:53:09;;;;;;;18.07;14.47;;;-4.30;99.90;;;;;;5021629;28;20204;-80
2023/03/01 03:55:38;;;;;;;15.47;13.87;;;-4.20;99.90;;;;;;5003506;28;20229;-80
2023/03/01 03:58:06;;;;;;;15.57;14.10;;;-4.20;99.90;;;;;;5017923;28;20594;-79
2023/03/01 04:00:38;;;;;;;19.43;14.50;;;-4.10;99.90;;;;;;5000178;28;20238;-79
2023/03/01 04:03:04;;;;;;;16.53;13.77;;;-4.10;99.90;;;;;;5000527;28;20243;-79
2023/03/01 04:05:30;;;;;;;14.90;13.53;;;-4.10;99.90;;;;;;5017879;28;20179;-79
2023/03/01 04:08:03;;;;;;;20.27;14.87;;;-4.10;99.90;;;;;;5018967;28;20262;-80
2023/03/01 04:10:31;;;;;;;18.33;14.00;;;-4.00;99.90;;;;;;5000180;28;20656;-80
2023/03/01 04:12:57;;;;;;;16.07;14.37;;;-3.90;99.90;;;;;;5000229;28;20211;-79
2023/03/01 04:15:24;;;;;;;17.43;14.13;;;-4.00;99.90;;;;;;5000207;28;20230;-80
2023/03/01 04:17:52;;;;;;;16.10;14.40;;;-4.10;99.90;;;;;;5001243;28;20659;-79
2023/03/01 04:20:24;;;;;;;15.37;13.90;;;-4.20;99.90;;;;;;5002455;28;20640;-80
2023/03/01 04:22:57;;;;;;;16.63;14.83;;;-4.10;99.90;;;;;;5002355;28;20687;-80
2023/03/01 04:25:23;;;;;;;17.63;15.37;;;-4.00;99.90;;;;;;5002447;28;20656;-80
2023/03/01 04:27:49;;;;;;;18.57;14.30;;;-4.00;99.90;;;;;;5020289;28;20187;-79
2023/03/01 04:30:15;;;;;;;18.07;16.07;;;-3.90;99.90;;;;;;5002810;28;20183;-80
2023/03/01 04:32:41;;;;;;;21.70;15.83;;;-4.20;99.90;;;;;;5002875;28;20203;-80
2023/03/01 04:35:07;;;;;;;16.67;15.00;;;-4.30;99.90;;;;;;5002362;28;20183;-80
2023/03/01 04:37:34;;;;;;;18.53;15.40;;;-4.40;99.90;;;;;;5003531;28;20186;-80
2023/03/01 04:40:00;;;;;;;22.10;14.40;;;-4.60;99.90;;;;;;5003643;28;20183;-80
2023/03/01 04:42:26;;;;;;;16.53;14.60;;;-4.60;99.90;;;;;;5022937;28;20211;-79
2023/03/01 04:44:52;;;;;;;17.03;14.83;;;-4.60;99.90;;;;;;5005888;28;20184;-80
2023/03/01 04:47:18;;;;;;;15.00;13.43;;;-4.60;99.90;;;;;;5005826;28;20175;-79
2023/03/01 04:49:44;;;;;;;15.50;13.90;;;-4.60;99.90;;;;;;5003597;28;20230;-80
2023/03/01 04:52:09;;;;;;;17.83;15.33;;;-4.70;99.90;;;;;;5002669;28;20231;-80
2023/03/01 04:54:35;;;;;;;18.33;15.87;;;-4.80;99.90;;;;;;5003201;28;20188;-80
2023/03/01 04:57:02;;;;;;;19.83;14.77;;;-4.80;99.90;;;;;;5001993;28;20604;-80
2023/03/01 04:59:28;;;;;;;16.70;14.53;;;-4.90;99.90;;;;;;5002946;28;20187;-81
2023/03/01 05:01:56;;;;;;;16.07;14.50;;;-5.00;99.90;;;;;;5003356;28;20216;-79
2023/03/01 05:04:25;;;;;;;16.77;14.43;;;-5.10;99.90;;;;;;5002622;28;20555;-80
2023/03/01 05:06:51;;;;;;;21.33;16.73;;;-5.10;99.90;;;;;;5019625;28;20176;-79
2023/03/01 05:09:17;;;;;;;15.13;13.60;;;-5.10;99.90;;;;;;5019122;28;20254;-81
2023/03/01 05:11:43;;;;;;;15.70;14.10;;;-5.10;99.90;;;;;;5020118;28;20200;-80
2023/03/01 05:14:09;;;;;;;15.90;14.47;;;-5.00;99.90;;;;;;5002950;28;20190;-80
2023/03/01 05:16:36;;;;;;;17.97;15.27;;;-5.00;99.90;;;;;;5020911;28;20231;-80
2023/03/01 05:19:11;;;;;;;15.67;14.00;;;-4.90;99.90;;;;;;5020318;28;20239;-80
2023/03/01 05:22:01;;;;;;;16.83;14.80;;;-4.70;99.90;;;;;;5002994;28;20230;-80
2023/03/01 05:24:24;;;;;;;16.53;14.57;;;-4.70;99.90;;;;;;5019154;28;20652;-80
2023/03/01 05:26:51;;;;;;;17.27;15.10;;;-4.60;99.90;;;;;;5015711;28;20187;-78
2023/03/01 05:29:24;;;;;;;16.23;13.87;;;-4.50;99.90;;;;;;4997810;28;20186;-78
2023/03/01 05:31:53;;;;;;;18.67;15.07;;;-4.50;99.90;;;;;;4997266;28;20200;-78
2023/03/01 05:34:22;;;;;;;17.70;15.73;;;-4.50;99.90;;;;;;5015806;28;20675;-80
2023/03/01 05:36:48;;;;;;;16.13;14.53;;;-4.60;99.90;;;;;;5000173;28;20179;-80
2023/03/01 05:39:14;;;;;;;18.07;15.33;;;-4.60;99.90;;;;;;5000109;28;20180;-79
2023/03/01 05:41:40;;;;;;;18.23;15.80;;;-4.60;99.90;;;;;;4998988;28;20208;-78
2023/03/01 05:44:07;;;;;;;18.53;15.90;;;-4.60;99.90;;;;;;5014464;28;20176;-78
2023/03/01 05:46:32;;;;;;;18.00;16.03;;;-4.70;99.90;;;;;;4996811;28;20245;-78
2023/03/01 05:48:58;;;;;;;16.63;14.83;;;-4.90;99.90;;;;;;5014401;28;20637;-78
2023/03/01 05:51:24;;;;;;;16.00;14.40;;;-4.80;99.90;;;;;;4997071;28;20206;-79
2023/03/01 05:53:49;;;;;;;17.60;15.80;;;-4.90;99.90;;;;;;4998286;28;20176;-78
2023/03/01 05:56:15;;;;;;;16.63;15.07;;;-4.90;99.90;;;;;;4998367;28;20176;-78
2023/03/01 05:58:41;;;;;;;17.37;15.47;;;-4.80;99.90;;;;;;5014562;28;20195;-79
2023/03/01 06:01:12;;;;;;;18.00;16.20;;;-4.80;99.90;;;;;;5014979;28;20176;-78
2023/03/01 06:03:38;;;;;;;19.90;15.83;;;-4.80;99.90;;;;;;4996964;28;20294;-78
2023/03/01 06:06:04;;;;;;;19.53;15.70;;;-4.90;99.90;;;;;;5014624;28;20202;-78
2023/03/01 06:08:29;;;;;;;23.27;16.90;;;-4.90;99.90;;;;;;5014480;28;20246;-78
2023/03/01 06:10:55;;;;;;;27.23;16.77;;;-5.00;99.90;;;;;;4999645;28;20183;-78
2023/03/01 06:13:23;;;;;;;18.23;16.33;;;-5.00;99.90;;;;;;5018205;28;20195;-78
2023/03/01 06:15:49;;;;;;;20.03;16.47;;;-5.10;99.90;;;;;;5018137;28;20199;-77
2023/03/01 06:18:14;;;;;;;19.03;16.57;;;-5.00;99.90;;;;;;5017813;28;20269;-77
2023/03/01 06:20:40;;;;;;;17.57;15.63;;;-5.00;99.90;;;;;;5000144;28;20652;-77
2023/03/01 06:23:06;;;;;;;16.67;14.97;;;-5.00;99.90;;;;;;4999900;28;20254;-77
2023/03/01 06:25:31;;;;;;;17.67;15.77;;;-5.00;99.90;;;;;;5000086;28;20202;-77
2023/03/01 06:27:57;;;;;;;19.17;17.20;;;-4.90;99.90;;;;;;5017912;28;20639;-77
2023/03/01 06:30:25;;;;;;;18.60;16.00;;;-4.90;99.90;;;;;;5017908;28;20222;-77
2023/03/01 06:32:51;;;;;;;18.23;16.33;;;-5.00;99.90;;;;;;5018686;28;20294;-77
2023/03/01 06:35:18;;;;;;;18.43;16.23;;;-5.10;99.90;;;;;;5003063;28;20656;-77
2023/03/01 06:37:46;;;;;;;15.63;14.17;;;-5.00;99.90;;;;;;5000429;28;20184;-77
2023/03/01 06:40:13;;;;;;;18.33;16.40;;;-4.90;99.90;;;;;;5000173;28;20554;-77
2023/03/01 06:42:41;;;;;;;18.27;15.47;;;-4.80;99.90;;;;;;5000238;28;20206;-77
2023/03/01 06:45:08;;;;;;;19.30;16.67;;;-4.60;99.90;;;;;;5001005;28;20175;-77
2023/03/01 06:47:34;;;;;;;18.90;16.87;;;-4.50;99.90;;;;;;5000264;28;20176;-77
2023/03/01 06:50:00;;;;;;;21.80;16.17;;;-4.50;99.90;;;;;;5017883;28;20250;-77
2023/03/01 06:52:26;;;;;;;17.57;15.83;;;-4.50;99.90;;;;;;5017801;28;20203;-77
2023/03/01 06:54:52;;;;;;;19.53;16.17;;;-4.50;99.90;;;;;;5017525;28;20179;-77
2023/03/01 06:57:18;;;;;;;21.27;16.97;;;-4.50;99.90;;;;;;4999304;28;20188;-77
2023/03/01 06:59:43;;;;;;;17.93;16.03;;;-4.50;99.90;;;;;;4999528;28;20179;-76
2023/03/01 07:02:13;;;;;;;24.20;16.27;;;-4.60;99.90;;;;;;4999176;28;20203;-76
2023/03/01 07:04:39;;;;;;;19.13;16.40;;;-4.60;99.90;;;;;;4999407;28;20180;-76
2023/03/01 07:07:05;;;;;;;24.07;16.60;;;-4.50;99.90;;;;;;5016951;28;20171;-76
2023/03/01 07:09:31;;;;;;;21.07;18.23;;;-4.50;99.90;;;;;;4999233;28;20180;-76
2023/03/01 07:11:57;;;;;;;18.33;16.23;;;-4.40;99.90;;;;;;5016711;28;20196;-76
2023/03/01 07:14:25;;;;;;;23.43;17.23;;;-4.40;99.90;;;;;;4999293;28;20198;-76
2023/03/01 07:16:54;;;;;;;19.50;17.37;;;-4.30;99.90;;;;;;5016718;28;20176;-76
2023/03/01 07:19:21;;;;;;;24.77;17.87;;;-4.20;99.90;;;;;;4999248;28;20180;-77
2023/03/01 07:21:47;;;;;;;23.77;17.77;;;-4.10;99.90;;;;;;4998408;28;20229;-77
2023/03/01 07:24:12;;;;;;;23.57;18.33;;;-4.00;99.90;;;;;;4999157;28;20203;-77
2023/03/01 07:26:38;;;;;;;26.67;19.07;;;-3.90;99.90;;;;;;5017521;28;20520;-78
2023/03/01 07:29:06;;;;;;;26.03;18.83;;;-3.80;99.90;;;;;;4999629;28;20222;-78
2023/03/01 07:31:32;;;;;;;20.73;18.53;;;-3.70;99.90;;;;;;4998875;28;20180;-79
2023/03/01 07:33:58;;;;;;;22.23;18.07;;;-3.60;99.90;;;;;;4999844;28;20176;-80
2023/03/01 07:36:24;;;;;;;26.30;18.77;;;-3.50;99.90;;;;;;5018164;28;20271;-80
2023/03/01 07:38:50;;;;;;;22.10;18.07;;;-3.40;99.90;;;;;;5000106;28;20180;-80
2023/03/01 07:41:16;;;;;;;22.00;19.53;;;-3.30;99.90;;;;;;5018200;28;20219;-80
2023/03/01 07:43:42;;;;;;;27.00;20.17;;;-3.20;99.90;;;;;;5017788;28;20619;-80
2023/03/01 07:46:08;;;;;;;23.90;20.37;;;-3.00;99.90;;;;;;5018099;28;20168;-81
2023/03/01 07:48:34;;;;;;;27.40;20.03;;;-2.70;99.90;;;;;;5000632;28;20187;-79
2023/03/01 07:51:01;;;;;;;25.43;19.50;;;-2.30;99.90;;;;;;5018000;28;20282;-79
2023/03/01 07:53:27;;;;;;;24.47;20.57;;;-1.90;99.90;;;;;;5001256;28;20616;-80
2023/03/01 07:56:11;;;;;;;26.47;20.00;;;-1.50;99.90;;;;;;5001823;28;20226;-80
2023/03/01 07:58:40;;;;;;;24.97;19.20;;;-1.30;99.90;;;;;;5022870;28;20218;-80
2023/03/01 08:01:12;;;;;;;23.93;19.37;;;-1.20;99.90;;;;;;5007762;28;20179;-80
2023/03/01 08:03:43;;;;;;;25.00;19.50;;;-1.10;99.90;;;;;;5003071;28;20294;-81
2023/03/01 08:06:10;;;;;;;24.53;18.97;;;-1.00;99.90;;;;;;5000646;28;20250;-81
2023/03/01 08:08:37;;;;;;;22.70;18.00;;;-0.90;99.90;;;;;;5001505;28;20539;-81
2023/03/01 08:11:04;;;;;;;26.03;18.07;;;-0.80;99.90;;;;;;5019883;28;20200;-81
2023/03/01 08:13:31;;;;;;;21.50;17.47;;;-0.70;99.90;;;;;;5001290;28;20196;-81
2023/03/01 08:16:06;;;;;;;22.03;18.10;;;-0.70;99.90;;;;;;5004532;28;20175;-81
2023/03/01 08:18:32;;;;;;;23.63;19.30;;;-0.60;99.90;;;;;;5007338;28;20522;-81
2023/03/01 08:21:06;;;;;;;20.60;18.40;;;-0.50;99.90;;;;;;5004852;28;20183;-81
2023/03/01 08:23:32;;;;;;;23.00;19.40;;;-0.50;99.90;;;;;;5003544;28;20215;-81
2023/03/01 08:26:11;;;;;;;23.97;18.43;;;-0.40;99.90;;;;;;5004054;28;20206;-81
2023/03/01 08:28:37;;;;;;;21.10;18.13;;;-0.40;99.90;;;;;;5020910;28;20261;-81
2023/03/01 08:31:12;;;;;;;24.17;18.17;;;-0.20;99.90;;;;;;5020964;28;20231;-81
2023/03/01 08:33:38;;;;;;;21.60;18.57;;;-0.10;99.90;;;;;;5002430;28;20218;-81
2023/03/01 08:36:07;;;;;;;25.93;17.47;;;0.00;99.90;;;;;;5019435;28;20164;-83
2023/03/01 08:38:34;;;;;;;21.77;17.97;;;0.20;99.90;;;;;;5002759;28;20279;-81
2023/03/01 08:41:04;;;;;;;21.63;17.73;;;0.30;99.90;;;;;;5001285;28;20179;-81
2023/03/01 08:43:30;;;;;;;20.97;18.37;;;0.50;99.90;;;;;;5000768;28;20556;-81
2023/03/01 08:45:56;;;;;;;19.63;17.17;;;0.60;99.90;;;;;;5000928;28;20183;-83
2023/03/01 08:48:21;;;;;;;21.60;18.83;;;0.70;99.90;;;;;;5001398;28;20183;-84
2023/03/01 08:50:47;;;;;;;26.27;18.63;;;0.90;99.90;;;;;;5019254;28;20501;-82
2023/03/01 08:53:13;;;;;;;19.33;17.33;;;1.00;99.90;;;;;;5001139;28;20206;-83
2023/03/01 08:55:38;;;;;;;20.50;17.57;;;1.00;99.90;;;;;;5000889;28;20212;-84
2023/03/01 08:58:05;;;;;;;22.13;17.60;;;1.20;99.90;;;;;;5000879;28;20255;-84
2023/03/01 09:00:34;;;;;;;22.07;17.90;;;1.10;99.90;;;;;;5000439;28;20219;-83
2023/03/01 09:03:00;;;;;;;21.17;17.80;;;1.20;99.90;;;;;;5001823;28;20207;-83
2023/03/01 09:05:26;;;;;;;19.40;17.37;;;1.40;99.90;;;;;;5003848;28;20179;-84
2023/03/01 09:07:51;;;;;;;21.57;16.90;;;1.70;99.90;;;;;;5039188;28;20180;-84
2023/03/01 09:10:18;;;;;;;24.30;15.90;;;1.80;99.90;;;;;;5009886;28;20584;-84
2023/03/01 09:12:44;;;;;;;18.07;15.90;;;1.90;99.90;;;;;;5018878;28;20207;-83
2023/03/01 09:15:10;;;;;;;19.83;15.97;;;2.10;99.90;;;;;;5008172;28;20183;-83
2023/03/01 09:17:35;;;;;;;18.67;16.63;;;2.20;99.90;;;;;;4999221;28;20191;-83
2023/03/01 09:20:01;;;;;;;23.00;16.23;;;2.30;99.90;;;;;;5000570;28;20176;-83
2023/03/01 09:22:27;;;;;;;22.20;15.20;;;2.40;99.90;;;;;;4999538;28;20255;-83
2023/03/01 09:24:53;;;;;;;19.97;14.73;;;2.60;99.90;;;;;;4999935;28;20183;-83
2023/03/01 09:27:19;;;;;;;16.67;14.97;;;2.70;99.90;;;;;;4999444;28;20243;-83
2023/03/01 09:29:45;;;;;;;16.63;14.07;;;2.90;99.90;;;;;;4999112;28;20180;-83
2023/03/01 09:32:11;;;;;;;18.97;12.43;;;3.00;99.90;;;;;;4999277;28;20664;-83
2023/03/01 09:35:00;;;;;;;13.97;11.93;;;3.00;99.90;;;;;;4999287;28;20180;-83
2023/03/01 09:37:22;;;;;;;14.27;12.53;;;3.10;99.90;;;;;;5001871;28;20184;-83
2023/03/01 09:39:48;;;;;;;16.53;12.80;;;3.20;99.90;;;;;;4999279;28;20179;-83
2023/03/01 09:42:15;;;;;;;13.90;12.47;;;3.30;99.90;;;;;;4999817;28;20204;-82
2023/03/01 09:44:49;;;;;;;14.27;12.10;;;3.40;99.90;;;;;;4999155;28;20183;-83
2023/03/01 09:47:33;;;;;;;14.50;12.10;;;3.50;99.90;;;;;;5000082;28;20659;-83
2023/03/01 09:50:13;;;;;;;13.37;11.80;;;3.60;99.90;;;;;;5016827;28;20160;-83
2023/03/01 09:52:43;;;;;;;13.70;12.30;;;3.60;99.90;;;;;;4997750;28;20286;-83
2023/03/01 09:55:12;;;;;;;19.17;12.47;;;3.80;99.90;;;;;;4997498;28;20180;-83
2023/03/01 09:57:55;;;;;;;14.90;12.43;;;3.90;99.90;;;;;;5015687;28;20196;-83
2023/03/01 10:00:42;;;;;;;17.23;11.53;;;3.90;99.90;;;;;;4998687;28;20172;-83
2023/03/01 10:03:09;;;;;;;13.97;11.83;;;3.90;99.90;;;;;;5015845;28;20219;-84
2023/03/01 10:06:01;;;;;;;14.13;11.90;;;3.90;99.90;;;;;;4998895;28;20257;-83
2023/03/01 10:08:30;;;;;;;13.30;12.00;;;3.90;99.90;;;;;;4998786;28;20279;-83
2023/03/01 10:10:57;;;;;;;14.93;12.43;;;3.90;99.90;;;;;;4998192;28;20176;-84
2023/03/01 10:13:53;;;;;;;14.23;12.73;;;3.80;99.90;;;;;;4998941;28;20551;-82
2023/03/01 10:16:37;;;;;;;19.00;12.47;;;3.80;99.90;;;;;;4999743;28;20175;-81
2023/03/01 10:19:06;;;;;;;14.77;11.13;;;3.90;99.90;;;;;;4999751;28;20180;-82
2023/03/01 10:21:39;;;;;;;13.27;11.97;;;4.00;99.90;;;;;;4998799;28;20191;-81
2023/03/01 10:24:14;;;;;;;12.93;11.63;;;4.00;99.90;;;;;;4997211;28;20188;-81
2023/03/01 10:26:43;;;;;;;14.93;12.90;;;4.10;99.90;;;;;;4996685;28;20302;-81
2023/03/01 10:29:11;;;;;;;14.97;12.07;;;4.20;99.90;;;;;;4996573;28;20203;-84
2023/03/01 10:31:42;;;;;;;15.00;12.33;;;4.20;99.90;;;;;;4996709;28;20196;-84
2023/03/01 10:34:22;;;;;;;15.23;12.17;;;4.20;99.90;;;;;;5014525;28;20523;-84
2023/03/01 10:36:51;;;;;;;12.87;11.57;;;4.20;99.90;;;;;;5014079;28;20151;-83
2023/03/01 10:39:22;;;;;;;14.10;12.43;;;4.30;99.90;;;;;;4996906;28;20186;-83
2023/03/01 10:41:56;;;;;;;14.50;11.97;;;4.30;99.90;;;;;;5001718;28;20231;-83
2023/03/01 10:44:54;;;;;;;15.13;11.73;;;4.50;99.90;;;;;;5008747;28;20180;-85
2023/03/01 10:47:24;;;;;;;14.03;11.50;;;4.40;99.90;;;;;;4981364;28;20184;-85
2023/03/01 10:49:54;;;;;;;12.93;11.43;;;4.50;99.90;;;;;;5019422;28;20168;-85
2023/03/01 10:52:26;;;;;;;12.97;11.50;;;4.70;99.90;;;;;;5002007;28;20684;-84
2023/03/01 10:55:13;;;;;;;15.53;12.13;;;4.90;99.90;;;;;;5001882;28;20647;-84
2023/03/01 10:57:40;;;;;;;15.10;11.97;;;5.00;99.90;;;;;;4992806;28;20221;-84
2023/03/01 11:00:19;;;;;;;13.77;11.80;;;5.10;99.90;;;;;;5003950;28;20180;-83
2023/03/01 11:02:57;;;;;;;13.97;11.43;;;5.40;99.90;;;;;;5002732;28;20650;-83
2023/03/01 11:05:25;;;;;;;12.90;11.53;;;5.60;99.90;;;;;;5020225;28;20164;-82
2023/03/01 11:07:56;;;;;;;13.13;11.73;;;5.70;99.90;;;;;;5020225;28;20230;-83
2023/03/01 11:10:29;;;;;;;13.27;11.70;;;5.80;99.90;;;;;;5001714;28;20183;-82
2023/03/01 11:13:07;;;;;;;12.53;11.33;;;5.70;99.90;;;;;;5002006;28;20303;-81
2023/03/01 11:15:34;;;;;;;16.13;11.13;;;5.90;99.90;;;;;;5002008;28;20179;-81
2023/03/01 11:18:00;;;;;;;12.37;10.83;;;5.80;99.90;;;;;;5001418;28;20214;-82
2023/03/01 11:20:35;;;;;;;14.73;11.30;;;6.00;99.90;;;;;;5018919;28;20180;-82
2023/03/01 11:23:13;;;;;;;12.20;11.00;;;6.00;99.90;;;;;;5001094;28;20215;-83
2023/03/01 11:25:43;;;;;;;12.90;10.90;;;6.10;99.90;;;;;;5000355;28;20178;-82
2023/03/01 11:28:15;;;;;;;14.63;12.27;;;6.20;99.90;;;;;;5000675;28;20187;-83
2023/03/01 11:31:13;;;;;;;14.10;11.47;;;6.40;99.90;;;;;;5000487;28;20592;-82
2023/03/01 11:33:46;;;;;;;15.27;11.47;;;6.40;99.90;;;;;;5000254;28;20207;-82
2023/03/01 11:36:36;;;;;;;12.23;10.67;;;6.50;99.90;;;;;;5002012;28;20542;-83
2023/03/01 11:39:43;;;;;;;12.57;11.27;;;6.50;99.90;;;;;;5001991;28;20179;-83
2023/03/01 11:42:24;;;;;;;13.23;11.67;;;6.70;99.90;;;;;;5000473;28;20239;-82
2023/03/01 11:44:55;;;;;;;13.80;11.03;;;6.80;99.90;;;;;;5001264;28;20192;-79
2023/03/01 11:47:32;;;;;;;11.33;10.17;;;7.00;99.90;;;;;;5000256;28;20581;-79
2023/03/01 11:50:10;;;;;;;14.70;10.60;;;7.30;99.90;;;;;;5018285;28;20160;-79
2023/03/01 11:53:01;;;;;;;13.27;10.73;;;7.40;99.90;;;;;;4999685;28;20691;-79
2023/03/01 11:55:54;;;;;;;12.53;10.03;;;7.50;99.90;;;;;;5001747;28;20177;-80
2023/03/01 11:58:44;;;;;;;13.37;10.73;;;7.60;99.90;;;;;;5000921;28;20321;-80
2023/03/01 12:01:42;;;;;;;12.97;10.77;;;7.50;99.90;;;;;;5000263;28;20184;-80
2023/03/01 12:04:08;;;;;;;10.83;9.83;;;7.40;99.90;;;;;;4948317;28;20230;-80
2023/03/01 12:06:59;;;;;;;12.57;10.60;;;7.40;99.90;;;;;;5000055;28;20176;-80
2023/03/01 12:09:36;;;;;;;15.53;11.10;;;7.60;99.90;;;;;;4999486;28;20211;-80
2023/03/01 12:12:27;;;;;;;12.03;10.10;;;7.60;99.90;;;;;;5000166;28;20254;-84
2023/03/01 12:15:07;;;;;;;14.00;10.23;;;7.80;99.90;;;;;;5002516;28;20176;-81
2023/03/01 12:17:33;;;;;;;11.87;10.20;;;7.80;99.90;;;;;;5002425;28;20172;-81
2023/03/01 12:20:17;;;;;;;15.93;10.87;;;7.70;99.90;;;;;;5023773;28;20171;-80
2023/03/01 12:22:49;;;;;;;16.00;11.17;;;7.60;99.90;;;;;;5004979;28;20215;-82
2023/03/01 12:25:33;;;;;;;15.83;11.50;;;7.70;99.90;;;;;;5000453;28;20175;-82
2023/03/01 12:28:16;;;;;;;14.20;11.03;;;7.80;99.90;;;;;;5018018;28;20164;-79
2023/03/01 12:31:16;;;;;;;12.03;10.57;;;7.80;99.90;;;;;;4999631;28;20172;-80
2023/03/01 12:34:10;;;;;;;13.07;10.57;;;7.60;99.90;;;;;;5016227;28;20574;-79
2023/03/01 12:37:04;;;;;;;15.80;10.77;;;7.80;99.90;;;;;;4998643;28;20206;-79
2023/03/01 12:39:44;;;;;;;11.57;10.03;;;8.20;99.90;;;;;;5016254;28;20171;-79
2023/03/01 12:42:18;;;;;;;12.13;10.73;;;8.30;99.90;;;;;;5016445;28;20208;-78
2023/03/01 12:45:23;;;;;;;13.47;10.53;;;8.30;99.90;;;;;;4999085;28;20183;-78
2023/03/01 12:48:14;;;;;;;15.17;11.63;;;8.20;99.90;;;;;;4976289;28;20223;-79